createdAt,value
2023-02-03T00:00:10.741Z,28.70
2023-02-03T00:01:10.782Z,29.80
2023-02-03T00:02:10.788Z,30.10
2023-02-03T00:03:10.739Z,29.70
2023-02-03T00:04:10.713Z,25.90
2023-02-03T00:05:10.708Z,26.10
2023-02-03T00:06:10.726Z,28.20
2023-02-03T00:07:11.165Z,26.10
2023-02-03T00:08:11.693Z,25.20
2023-02-03T00:09:10.655Z,24.00
2023-02-03T00:10:10.675Z,25.80
2023-02-03T00:11:10.648Z,23.90
2023-02-03T00:12:10.633Z,25.20
2023-02-03T00:13:10.678Z,20.30
2023-02-03T00:14:10.601Z,22.90
2023-02-03T00:15:10.615Z,23.60
2023-02-03T00:16:10.603Z,23.70
2023-02-03T00:17:10.573Z,19.50
2023-02-03T00:18:10.602Z,18.90
2023-02-03T00:19:10.643Z,20.50
2023-02-03T00:20:10.615Z,22.10
2023-02-03T00:21:10.550Z,19.30
2023-02-03T00:22:10.535Z,15.90
2023-02-03T00:23:10.557Z,18.40
2023-02-03T00:24:10.516Z,19.20
2023-02-03T00:25:10.578Z,17.10
2023-02-03T00:26:10.549Z,16.50
2023-02-03T00:27:10.498Z,16.00
2023-02-03T00:28:10.545Z,17.60
2023-02-03T00:29:10.514Z,12.80
2023-02-03T00:30:10.537Z,14.50
2023-02-03T00:31:10.577Z,16.20
2023-02-03T00:32:10.657Z,14.50
2023-02-03T00:33:10.613Z,16.10
2023-02-03T00:34:10.508Z,15.40
2023-02-03T00:35:10.439Z,15.50
2023-02-03T00:36:10.485Z,15.30
2023-02-03T00:37:10.534Z,13.90
2023-02-03T00:38:10.429Z,16.90
2023-02-03T00:39:10.422Z,16.60
2023-02-03T00:40:10.423Z,15.10
2023-02-03T00:41:10.426Z,16.30
2023-02-03T00:42:10.411Z,16.00
2023-02-03T00:43:10.507Z,18.40
2023-02-03T00:44:10.429Z,14.60
2023-02-03T00:45:10.429Z,16.10
2023-02-03T00:46:10.429Z,15.20
2023-02-03T00:47:10.376Z,18.00
2023-02-03T00:48:10.357Z,18.10
2023-02-03T00:49:10.392Z,16.50
2023-02-03T00:50:10.348Z,15.70
2023-02-03T00:51:10.370Z,16.10
2023-02-03T00:52:10.336Z,15.90
2023-02-03T00:53:10.326Z,15.20
2023-02-03T00:54:10.336Z,14.80
2023-02-03T00:55:10.357Z,15.00
2023-02-03T00:56:10.300Z,18.30
2023-02-03T00:57:10.300Z,16.10
2023-02-03T00:58:10.322Z,15.80
2023-02-03T00:59:10.295Z,13.00
2023-02-03T01:00:10.287Z,16.10
2023-02-03T01:01:10.439Z,15.70
2023-02-03T01:02:10.354Z,16.10
2023-02-03T01:03:10.265Z,16.30
2023-02-03T01:04:10.273Z,16.50
2023-02-03T01:05:10.238Z,11.60
2023-02-03T01:06:10.238Z,13.90
2023-02-03T01:07:10.774Z,14.30
2023-02-03T01:08:10.223Z,17.90
2023-02-03T01:09:10.222Z,12.30
2023-02-03T01:10:10.223Z,13.30
2023-02-03T01:11:10.205Z,16.40
2023-02-03T01:12:10.186Z,14.90
2023-02-03T01:13:10.257Z,14.50
2023-02-03T01:14:10.176Z,15.20
2023-02-03T01:15:10.202Z,15.40
2023-02-03T01:16:10.197Z,13.20
2023-02-03T01:17:10.150Z,16.90
2023-02-03T01:18:10.166Z,16.70
2023-02-03T01:19:10.182Z,17.70
2023-02-03T01:20:10.165Z,15.50
2023-02-03T01:21:10.144Z,15.60
2023-02-03T01:22:10.097Z,19.50
2023-02-03T01:23:10.121Z,17.70
2023-02-03T01:24:10.117Z,16.10
2023-02-03T01:25:10.149Z,15.20
2023-02-03T01:26:10.084Z,15.90
2023-02-03T01:27:10.078Z,15.90
2023-02-03T01:28:10.128Z,15.10
2023-02-03T01:29:10.062Z,16.60
2023-02-03T01:30:10.052Z,17.60
2023-02-03T01:31:10.238Z,16.80
2023-02-03T01:32:10.063Z,15.30
2023-02-03T01:33:10.070Z,18.50
2023-02-03T01:34:10.056Z,14.00
2023-02-03T01:35:10.041Z,15.80
2023-02-03T01:36:10.037Z,13.30
2023-02-03T01:37:10.089Z,16.30
2023-02-03T01:38:09.996Z,10.60
2023-02-03T01:39:10.042Z,15.70
2023-02-03T01:40:10.024Z,15.90
2023-02-03T01:41:09.998Z,16.30
2023-02-03T01:42:10.067Z,15.80
2023-02-03T01:43:10.032Z,14.30
2023-02-03T01:44:09.983Z,14.30
2023-02-03T01:45:11.901Z,14.00
2023-02-03T01:46:10.004Z,15.50
2023-02-03T01:47:09.946Z,14.60
2023-02-03T01:48:09.949Z,17.10
2023-02-03T01:49:09.961Z,13.10
2023-02-03T01:50:09.936Z,15.80
2023-02-03T01:51:09.922Z,15.50
2023-02-03T01:52:09.905Z,14.20
2023-02-03T01:53:09.885Z,14.20
2023-02-03T01:54:09.910Z,16.60
2023-02-03T01:55:09.933Z,13.70
2023-02-03T01:56:09.889Z,13.00
2023-02-03T01:57:09.850Z,13.00
2023-02-03T01:58:09.857Z,17.10
2023-02-03T01:59:09.868Z,16.00
2023-02-03T02:00:09.859Z,17.10
2023-02-03T02:01:09.876Z,16.60
2023-02-03T02:02:09.846Z,16.20
2023-02-03T02:03:09.831Z,15.90
2023-02-03T02:04:09.811Z,15.40
2023-02-03T02:05:09.802Z,15.50
2023-02-03T02:06:09.798Z,15.60
2023-02-03T02:07:09.857Z,16.60
2023-02-03T02:08:09.804Z,16.70
2023-02-03T02:09:09.772Z,17.70
2023-02-03T02:10:09.766Z,15.70
2023-02-03T02:11:09.776Z,18.10
2023-02-03T02:12:09.769Z,14.40
2023-02-03T02:13:10.104Z,16.70
2023-02-03T02:14:09.739Z,16.60
2023-02-03T02:15:09.773Z,13.40
2023-02-03T02:16:09.786Z,17.20
2023-02-03T02:17:09.737Z,12.80
2023-02-03T02:18:09.719Z,18.20
2023-02-03T02:19:09.780Z,14.80
2023-02-03T02:20:09.714Z,17.20
2023-02-03T02:21:09.717Z,15.30
2023-02-03T02:22:09.691Z,14.20
2023-02-03T02:23:09.667Z,13.50
2023-02-03T02:24:09.681Z,15.60
2023-02-03T02:25:09.711Z,16.40
2023-02-03T02:26:09.659Z,16.60
2023-02-03T02:27:09.638Z,15.50
2023-02-03T02:28:09.760Z,13.10
2023-02-03T02:29:09.617Z,14.30
2023-02-03T02:30:09.632Z,16.40
2023-02-03T02:31:09.728Z,9.80
2023-02-03T02:32:09.600Z,15.40
2023-02-03T02:33:09.596Z,13.20
2023-02-03T02:34:09.606Z,13.60
2023-02-03T02:35:09.598Z,13.30
2023-02-03T02:36:09.629Z,18.90
2023-02-03T02:37:09.649Z,15.30
2023-02-03T02:38:09.577Z,14.70
2023-02-03T02:39:09.554Z,13.80
2023-02-03T02:40:09.568Z,11.50
2023-02-03T02:41:09.542Z,13.70
2023-02-03T02:42:09.526Z,10.10
2023-02-03T02:43:09.580Z,11.30
2023-02-03T02:44:09.539Z,13.60
2023-02-03T02:45:09.708Z,9.90
2023-02-03T02:46:09.584Z,12.70
2023-02-03T02:47:09.506Z,13.10
2023-02-03T02:48:09.492Z,11.10
2023-02-03T02:49:09.566Z,12.40
2023-02-03T02:50:09.537Z,11.70
2023-02-03T02:51:09.490Z,12.70
2023-02-03T02:52:09.518Z,14.00
2023-02-03T02:53:09.545Z,11.60
2023-02-03T02:54:09.454Z,13.40
2023-02-03T02:55:09.533Z,8.70
2023-02-03T02:56:11.540Z,14.30
2023-02-03T02:57:09.466Z,10.10
2023-02-03T02:58:09.432Z,8.30
2023-02-03T02:59:09.442Z,11.70
2023-02-03T03:00:09.437Z,11.00
2023-02-03T03:01:09.504Z,13.60
2023-02-03T03:02:09.399Z,9.60
2023-02-03T03:03:09.455Z,10.80
2023-02-03T03:04:09.387Z,12.40
2023-02-03T03:05:09.455Z,12.90
2023-02-03T03:06:09.377Z,10.70
2023-02-03T03:07:09.408Z,12.60
2023-02-03T03:08:09.374Z,10.70
2023-02-03T03:09:09.364Z,10.50
2023-02-03T03:10:09.344Z,12.60
2023-02-03T03:11:09.343Z,13.50
2023-02-03T03:12:09.338Z,11.00
2023-02-03T03:13:09.758Z,9.90
2023-02-03T03:14:09.305Z,10.80
2023-02-03T03:15:09.337Z,13.60
2023-02-03T03:16:09.373Z,17.80
2023-02-03T03:17:09.282Z,13.00
2023-02-03T03:18:09.311Z,14.00
2023-02-03T03:19:09.314Z,12.60
2023-02-03T03:20:09.257Z,13.80
2023-02-03T03:21:09.264Z,11.70
2023-02-03T03:22:09.278Z,13.20
2023-02-03T03:23:09.277Z,12.70
2023-02-03T03:24:09.259Z,12.00
2023-02-03T03:25:09.299Z,14.10
2023-02-03T03:26:09.216Z,15.80
2023-02-03T03:27:09.251Z,13.80
2023-02-03T03:28:09.282Z,12.90
2023-02-03T03:29:09.212Z,13.10
2023-02-03T03:30:09.312Z,13.70
2023-02-03T03:31:09.343Z,14.20
2023-02-03T03:32:09.197Z,19.70
2023-02-03T03:33:09.189Z,12.90
2023-02-03T03:34:09.179Z,18.20
2023-02-03T03:35:09.192Z,16.00
2023-02-03T03:36:09.178Z,15.10
2023-02-03T03:37:09.201Z,13.80
2023-02-03T03:38:09.158Z,12.90
2023-02-03T03:39:09.155Z,15.50
2023-02-03T03:40:09.116Z,14.80
2023-02-03T03:41:09.117Z,17.20
2023-02-03T03:42:09.089Z,14.90
2023-02-03T03:43:09.239Z,14.00
2023-02-03T03:44:09.119Z,19.00
2023-02-03T03:45:09.094Z,14.80
2023-02-03T03:46:09.087Z,15.10
2023-02-03T03:47:09.087Z,13.60
2023-02-03T03:48:09.073Z,14.10
2023-02-03T03:49:09.136Z,14.40
2023-02-03T03:50:09.067Z,11.10
2023-02-03T03:51:09.060Z,15.20
2023-02-03T03:52:09.044Z,16.60
2023-02-03T03:53:09.054Z,13.50
2023-02-03T03:54:09.063Z,15.10
2023-02-03T03:55:09.061Z,13.10
2023-02-03T03:56:09.022Z,12.30
2023-02-03T03:57:09.016Z,11.50
2023-02-03T03:58:09.006Z,13.50
2023-02-03T03:59:08.979Z,11.80
2023-02-03T04:00:08.988Z,10.00
2023-02-03T04:01:09.056Z,12.60
2023-02-03T04:02:09.090Z,13.80
2023-02-03T04:03:09.055Z,16.40
2023-02-03T04:04:08.947Z,12.00
2023-02-03T04:05:08.956Z,11.40
2023-02-03T04:06:08.964Z,15.10
2023-02-03T04:07:08.990Z,12.40
2023-02-03T04:08:08.918Z,12.50
2023-02-03T04:09:08.925Z,14.50
2023-02-03T04:10:08.893Z,14.40
2023-02-03T04:11:08.897Z,13.80
2023-02-03T04:12:08.901Z,13.80
2023-02-03T04:13:08.924Z,15.30
2023-02-03T04:14:08.889Z,17.70
2023-02-03T04:15:08.866Z,15.40
2023-02-03T04:16:08.922Z,14.40
2023-02-03T04:17:08.864Z,16.90
2023-02-03T04:18:08.858Z,14.80
2023-02-03T04:19:09.193Z,12.90
2023-02-03T04:20:08.832Z,16.10
2023-02-03T04:21:08.831Z,11.60
2023-02-03T04:22:08.852Z,17.20
2023-02-03T04:23:08.815Z,13.50
2023-02-03T04:24:08.822Z,17.60
2023-02-03T04:25:08.876Z,16.30
2023-02-03T04:26:08.775Z,17.50
2023-02-03T04:27:08.787Z,12.90
2023-02-03T04:28:08.832Z,15.00
2023-02-03T04:29:08.774Z,12.60
2023-02-03T04:30:08.760Z,13.00
2023-02-03T04:31:08.933Z,14.90
2023-02-03T04:32:08.789Z,14.40
2023-02-03T04:33:08.734Z,15.20
2023-02-03T04:34:08.717Z,13.50
2023-02-03T04:35:08.711Z,12.60
2023-02-03T04:36:08.706Z,11.60
2023-02-03T04:37:08.745Z,14.10
2023-02-03T04:38:08.691Z,17.10
2023-02-03T04:39:08.692Z,10.20
2023-02-03T04:40:08.682Z,10.40
2023-02-03T04:41:08.689Z,16.30
2023-02-03T04:42:08.663Z,13.30
2023-02-03T04:43:08.744Z,10.00
2023-02-03T04:44:08.640Z,12.80
2023-02-03T04:45:08.650Z,10.50
2023-02-03T04:46:08.684Z,10.40
2023-02-03T04:47:08.621Z,12.10
2023-02-03T04:48:08.648Z,13.40
2023-02-03T04:49:08.673Z,11.60
2023-02-03T04:50:08.625Z,12.30
2023-02-03T04:51:08.596Z,12.20
2023-02-03T04:52:08.596Z,12.40
2023-02-03T04:53:08.605Z,9.20
2023-02-03T04:54:08.575Z,11.20
2023-02-03T04:55:08.644Z,12.60
2023-02-03T04:56:08.549Z,6.90
2023-02-03T04:57:08.543Z,10.00
2023-02-03T04:58:08.564Z,10.30
2023-02-03T04:59:08.521Z,9.20
2023-02-03T05:00:08.548Z,10.10
2023-02-03T05:01:08.620Z,9.70
2023-02-03T05:02:08.552Z,11.80
2023-02-03T05:03:08.582Z,11.00
2023-02-03T05:04:08.503Z,10.40
2023-02-03T05:05:08.525Z,8.20
2023-02-03T05:06:08.496Z,8.50
2023-02-03T05:07:08.513Z,10.60
2023-02-03T05:08:08.494Z,9.20
2023-02-03T05:09:08.463Z,9.80
2023-02-03T05:10:08.470Z,11.30
2023-02-03T05:11:08.471Z,8.90
2023-02-03T05:12:08.456Z,9.90
2023-02-03T05:13:08.506Z,8.20
2023-02-03T05:14:08.417Z,13.10
2023-02-03T05:15:08.422Z,11.20
2023-02-03T05:16:08.469Z,10.10
2023-02-03T05:17:08.410Z,10.20
2023-02-03T05:18:08.403Z,13.80
2023-02-03T05:19:08.926Z,9.80
2023-02-03T05:20:08.386Z,9.10
2023-02-03T05:21:08.365Z,9.70
2023-02-03T05:22:08.373Z,12.30
2023-02-03T05:23:08.406Z,10.40
2023-02-03T05:24:08.361Z,8.30
2023-02-03T05:25:08.412Z,10.10
2023-02-03T05:26:08.356Z,9.20
2023-02-03T05:27:08.368Z,7.70
2023-02-03T05:28:08.407Z,14.90
2023-02-03T05:29:08.324Z,13.40
2023-02-03T05:30:08.286Z,9.50
2023-02-03T05:31:08.383Z,6.80
2023-02-03T05:32:08.383Z,11.00
2023-02-03T05:33:08.300Z,9.50
2023-02-03T05:34:08.297Z,9.80
2023-02-03T05:35:08.259Z,8.90
2023-02-03T05:36:08.262Z,9.40
2023-02-03T05:37:08.306Z,10.20
2023-02-03T05:38:08.271Z,10.00
2023-02-03T05:39:08.234Z,13.30
2023-02-03T05:40:08.211Z,9.60
2023-02-03T05:41:08.221Z,9.90
2023-02-03T05:42:08.223Z,9.80
2023-02-03T05:43:08.270Z,9.20
2023-02-03T05:44:08.222Z,7.20
2023-02-03T05:45:08.230Z,8.30
2023-02-03T05:46:08.301Z,12.30
2023-02-03T05:47:08.187Z,10.10
2023-02-03T05:48:08.187Z,10.30
2023-02-03T05:49:08.198Z,7.20
2023-02-03T05:50:08.223Z,12.10
2023-02-03T05:51:08.154Z,9.40
2023-02-03T05:52:08.142Z,8.60
2023-02-03T05:53:08.158Z,9.70
2023-02-03T05:54:08.137Z,7.90
2023-02-03T05:55:08.173Z,9.00
2023-02-03T05:56:08.113Z,9.30
2023-02-03T05:57:08.112Z,9.70
2023-02-03T05:58:08.125Z,11.20
2023-02-03T05:59:08.104Z,8.10
2023-02-03T06:00:08.093Z,7.50
2023-02-03T06:01:08.102Z,8.70
2023-02-03T06:02:08.085Z,10.20
2023-02-03T06:03:08.090Z,10.90
2023-02-03T06:04:08.166Z,9.60
2023-02-03T06:05:08.047Z,11.00
2023-02-03T06:06:08.056Z,6.40
2023-02-03T06:07:08.085Z,6.50
2023-02-03T06:08:08.047Z,7.60
2023-02-03T06:09:08.021Z,8.90
2023-02-03T06:10:08.020Z,9.00
2023-02-03T06:11:07.994Z,9.90
2023-02-03T06:12:08.006Z,8.50
2023-02-03T06:13:08.070Z,9.40
2023-02-03T06:14:08.031Z,7.60
2023-02-03T06:15:07.979Z,10.10
2023-02-03T06:16:07.956Z,8.90
2023-02-03T06:17:07.932Z,11.00
2023-02-03T06:18:07.964Z,7.70
2023-02-03T06:19:08.014Z,9.30
2023-02-03T06:20:07.917Z,8.40
2023-02-03T06:21:07.934Z,13.50
2023-02-03T06:22:09.005Z,9.90
2023-02-03T06:23:07.939Z,10.70
2023-02-03T06:24:07.913Z,7.70
2023-02-03T06:25:08.442Z,9.10
2023-02-03T06:26:07.867Z,10.70
2023-02-03T06:27:07.896Z,8.10
2023-02-03T06:28:09.480Z,14.30
2023-02-03T06:29:07.855Z,9.20
2023-02-03T06:30:07.851Z,9.60
2023-02-03T06:31:08.040Z,9.40
2023-02-03T06:32:07.862Z,8.10
2023-02-03T06:33:07.848Z,9.80
2023-02-03T06:34:07.835Z,10.60
2023-02-03T06:35:07.850Z,8.10
2023-02-03T06:36:07.821Z,9.90
2023-02-03T06:37:07.867Z,8.80
2023-02-03T06:38:07.798Z,11.20
2023-02-03T06:39:07.796Z,10.90
2023-02-03T06:40:07.792Z,16.40
2023-02-03T06:41:07.818Z,7.60
2023-02-03T06:42:07.766Z,9.10
2023-02-03T06:43:07.826Z,11.90
2023-02-03T06:44:07.779Z,11.10
2023-02-03T06:45:07.749Z,10.30
2023-02-03T06:46:07.774Z,10.40
2023-02-03T06:47:07.739Z,9.30
2023-02-03T06:48:07.750Z,9.30
2023-02-03T06:49:07.783Z,10.10
2023-02-03T06:50:07.690Z,7.30
2023-02-03T06:51:07.681Z,12.60
2023-02-03T06:52:07.693Z,9.80
2023-02-03T06:53:07.684Z,11.10
2023-02-03T06:54:07.652Z,12.40
2023-02-03T06:55:07.727Z,10.60
2023-02-03T06:56:07.647Z,7.60
2023-02-03T06:57:07.676Z,7.80
2023-02-03T06:58:07.652Z,6.50
2023-02-03T06:59:07.652Z,7.20
2023-02-03T07:00:07.656Z,7.50
2023-02-03T07:01:07.714Z,10.50
2023-02-03T07:02:07.622Z,8.20
2023-02-03T07:03:07.619Z,9.50
2023-02-03T07:04:07.608Z,7.90
2023-02-03T07:05:07.600Z,8.90
2023-02-03T07:06:07.589Z,8.40
2023-02-03T07:07:07.636Z,9.00
2023-02-03T07:08:07.571Z,7.90
2023-02-03T07:09:07.574Z,7.90
2023-02-03T07:10:07.545Z,10.50
2023-02-03T07:11:07.560Z,8.40
2023-02-03T07:12:07.539Z,7.80
2023-02-03T07:13:07.623Z,9.20
2023-02-03T07:14:07.534Z,11.00
2023-02-03T07:15:07.539Z,9.90
2023-02-03T07:16:07.585Z,8.50
2023-02-03T07:17:07.540Z,7.70
2023-02-03T07:18:07.512Z,8.60
2023-02-03T07:19:07.572Z,8.90
2023-02-03T07:20:07.495Z,8.60
2023-02-03T07:21:07.496Z,8.20
2023-02-03T07:22:07.499Z,12.00
2023-02-03T07:23:07.480Z,12.00
2023-02-03T07:24:07.486Z,11.70
2023-02-03T07:25:07.517Z,10.50
2023-02-03T07:26:07.457Z,8.50
2023-02-03T07:27:07.429Z,7.50
2023-02-03T07:28:07.483Z,10.70
2023-02-03T07:29:07.437Z,9.40
2023-02-03T07:30:07.432Z,11.80
2023-02-03T07:31:07.834Z,9.10
2023-02-03T07:32:07.523Z,13.50
2023-02-03T07:33:07.392Z,7.60
2023-02-03T07:34:07.418Z,8.70
2023-02-03T07:35:07.383Z,8.20
2023-02-03T07:36:07.395Z,8.30
2023-02-03T07:37:07.418Z,8.90
2023-02-03T07:38:07.363Z,11.30
2023-02-03T07:39:07.376Z,11.20
2023-02-03T07:40:07.338Z,10.70
2023-02-03T07:41:07.375Z,11.50
2023-02-03T07:42:07.355Z,12.30
2023-02-03T07:43:07.379Z,8.60
2023-02-03T07:44:07.365Z,8.10
2023-02-03T07:45:07.313Z,11.40
2023-02-03T07:46:07.382Z,10.70
2023-02-03T07:47:07.305Z,9.90
2023-02-03T07:48:07.296Z,9.10
2023-02-03T07:49:07.328Z,10.30
2023-02-03T07:50:07.320Z,12.80
2023-02-03T07:51:07.258Z,13.80
2023-02-03T07:52:07.254Z,11.30
2023-02-03T07:53:07.269Z,10.40
2023-02-03T07:54:07.244Z,11.10
2023-02-03T07:55:07.302Z,11.60
2023-02-03T07:56:07.217Z,10.30
2023-02-03T07:57:07.220Z,8.80
2023-02-03T07:58:07.224Z,10.20
2023-02-03T07:59:07.224Z,7.50
2023-02-03T08:00:07.186Z,10.80
2023-02-03T08:01:07.218Z,9.30
2023-02-03T08:02:07.185Z,10.30
2023-02-03T08:03:07.187Z,10.50
2023-02-03T08:04:07.163Z,8.20
2023-02-03T08:05:07.170Z,9.90
2023-02-03T08:06:07.156Z,7.30
2023-02-03T08:07:07.274Z,10.50
2023-02-03T08:08:07.118Z,8.90
2023-02-03T08:09:07.121Z,12.40
2023-02-03T08:10:07.100Z,10.10
2023-02-03T08:11:07.117Z,8.40
2023-02-03T08:12:07.116Z,11.20
2023-02-03T08:13:07.154Z,9.10
2023-02-03T08:14:07.098Z,9.00
2023-02-03T08:15:07.096Z,8.10
2023-02-03T08:16:07.089Z,10.40
2023-02-03T08:17:07.139Z,9.40
2023-02-03T08:18:07.059Z,6.70
2023-02-03T08:19:07.121Z,11.00
2023-02-03T08:20:07.055Z,7.20
2023-02-03T08:21:07.052Z,11.90
2023-02-03T08:22:07.048Z,10.70
2023-02-03T08:23:07.036Z,10.70
2023-02-03T08:24:07.024Z,8.90
2023-02-03T08:25:07.045Z,8.70
2023-02-03T08:26:06.990Z,7.70
2023-02-03T08:27:06.997Z,10.30
2023-02-03T08:28:07.057Z,7.50
2023-02-03T08:29:06.978Z,8.60
2023-02-03T08:30:06.986Z,9.40
2023-02-03T08:31:07.110Z,8.80
2023-02-03T08:32:07.011Z,10.40
2023-02-03T08:33:06.933Z,9.00
2023-02-03T08:34:06.942Z,7.50
2023-02-03T08:35:06.950Z,9.50
2023-02-03T08:36:06.938Z,10.10
2023-02-03T08:37:07.265Z,8.90
2023-02-03T08:38:07.003Z,9.20
2023-02-03T08:39:06.906Z,12.70
2023-02-03T08:40:06.950Z,9.10
2023-02-03T08:41:06.889Z,9.20
2023-02-03T08:42:06.884Z,10.30
2023-02-03T08:43:06.997Z,14.40
2023-02-03T08:44:06.858Z,11.20
2023-02-03T08:45:06.863Z,8.90
2023-02-03T08:46:06.957Z,10.20
2023-02-03T08:47:06.829Z,7.50
2023-02-03T08:48:06.849Z,9.70
2023-02-03T08:49:06.879Z,8.60
2023-02-03T08:50:06.872Z,8.80
2023-02-03T08:51:06.835Z,9.60
2023-02-03T08:52:06.886Z,8.60
2023-02-03T08:53:06.797Z,8.20
2023-02-03T08:54:06.818Z,9.00
2023-02-03T08:55:06.834Z,7.10
2023-02-03T08:56:06.803Z,10.20
2023-02-03T08:57:06.803Z,9.90
2023-02-03T08:58:06.794Z,10.70
2023-02-03T08:59:06.777Z,9.30
2023-02-03T09:00:06.774Z,8.60
2023-02-03T09:01:06.853Z,8.60
2023-02-03T09:02:06.791Z,7.40
2023-02-03T09:03:06.768Z,9.70
2023-02-03T09:04:06.734Z,10.30
2023-02-03T09:05:06.782Z,10.00
2023-02-03T09:06:06.707Z,8.80
2023-02-03T09:07:06.765Z,10.80
2023-02-03T09:08:06.692Z,8.90
2023-02-03T09:09:06.728Z,9.60
2023-02-03T09:10:06.773Z,7.10
2023-02-03T09:11:06.665Z,11.00
2023-02-03T09:12:06.661Z,9.60
2023-02-03T09:13:06.702Z,10.60
2023-02-03T09:14:07.450Z,11.20
2023-02-03T09:15:06.668Z,12.10
2023-02-03T09:16:06.692Z,9.70
2023-02-03T09:17:06.632Z,9.50
2023-02-03T09:18:06.608Z,9.80
2023-02-03T09:19:06.680Z,11.70
2023-02-03T09:20:06.668Z,9.70
2023-02-03T09:21:06.600Z,7.60
2023-02-03T09:22:06.582Z,9.30
2023-02-03T09:23:06.610Z,9.70
2023-02-03T09:24:06.579Z,7.30
2023-02-03T09:25:06.632Z,7.40
2023-02-03T09:26:06.592Z,10.60
2023-02-03T09:27:06.564Z,7.90
2023-02-03T09:28:06.599Z,9.20
2023-02-03T09:29:06.528Z,7.50
2023-02-03T09:30:06.529Z,7.10
2023-02-03T09:31:06.637Z,7.70
2023-02-03T09:32:06.569Z,7.40
2023-02-03T09:33:06.510Z,6.80
2023-02-03T09:34:06.566Z,8.50
2023-02-03T09:35:06.490Z,8.00
2023-02-03T09:36:06.495Z,6.50
2023-02-03T09:37:06.924Z,9.00
2023-02-03T09:38:06.481Z,8.70
2023-02-03T09:39:06.489Z,30.60
2023-02-03T09:40:06.470Z,7.80
2023-02-03T09:41:11.532Z,6.00
2023-02-03T09:42:07.475Z,6.20
2023-02-03T09:43:06.595Z,7.50
2023-02-03T09:44:06.439Z,6.90
2023-02-03T09:45:06.435Z,8.60
2023-02-03T09:46:06.468Z,7.20
2023-02-03T09:47:08.226Z,8.50
2023-02-03T09:48:06.497Z,5.30
2023-02-03T09:49:06.483Z,7.90
2023-02-03T09:50:06.508Z,5.10
2023-02-03T09:51:06.401Z,6.10
2023-02-03T09:52:06.385Z,4.70
2023-02-03T09:53:06.444Z,7.00
2023-02-03T09:54:06.452Z,6.90
2023-02-03T09:55:06.448Z,7.30
2023-02-03T09:56:06.329Z,5.00
2023-02-03T09:57:07.711Z,6.50
2023-02-03T09:58:06.347Z,4.90
2023-02-03T09:59:06.356Z,8.60
2023-02-03T10:00:06.301Z,3.20
2023-02-03T10:01:06.461Z,4.40
2023-02-03T10:02:06.335Z,6.70
2023-02-03T10:03:06.283Z,5.10
2023-02-03T10:04:06.289Z,6.80
2023-02-03T10:05:06.337Z,4.10
2023-02-03T10:06:06.297Z,5.40
2023-02-03T10:07:06.389Z,6.30
2023-02-03T10:08:06.254Z,5.60
2023-02-03T10:09:06.274Z,5.10
2023-02-03T10:10:06.227Z,5.20
2023-02-03T10:11:06.220Z,5.40
2023-02-03T10:12:06.218Z,6.20
2023-02-03T10:13:06.383Z,2.50
2023-02-03T10:14:06.223Z,3.50
2023-02-03T10:15:06.262Z,5.80
2023-02-03T10:16:06.266Z,4.20
2023-02-03T10:17:06.306Z,3.50
2023-02-03T10:18:06.190Z,3.80
2023-02-03T10:19:06.259Z,4.70
2023-02-03T10:20:06.240Z,3.40
2023-02-03T10:21:06.165Z,4.10
2023-02-03T10:22:06.175Z,4.50
2023-02-03T10:23:06.148Z,5.00
2023-02-03T10:24:06.131Z,2.20
2023-02-03T10:25:06.169Z,2.70
2023-02-03T10:26:06.154Z,4.20
2023-02-03T10:27:06.210Z,4.10
2023-02-03T10:28:06.147Z,1.70
2023-02-03T10:29:06.105Z,3.60
2023-02-03T10:30:06.105Z,4.20
2023-02-03T10:31:06.247Z,3.10
2023-02-03T10:32:06.301Z,3.60
2023-02-03T10:33:06.054Z,2.70
2023-02-03T10:34:06.058Z,3.00
2023-02-03T10:35:06.057Z,5.30
2023-02-03T10:36:06.042Z,3.00
2023-02-03T10:37:06.289Z,2.70
2023-02-03T10:38:06.048Z,2.10
2023-02-03T10:39:06.043Z,1.80
2023-02-03T10:40:06.019Z,4.00
2023-02-03T10:41:06.071Z,4.30
2023-02-03T10:42:06.036Z,2.00
2023-02-03T10:43:06.110Z,1.90
2023-02-03T10:44:05.983Z,2.60
2023-02-03T10:45:06.060Z,3.50
2023-02-03T10:46:06.019Z,1.60
2023-02-03T10:47:05.985Z,2.60
2023-02-03T10:48:05.988Z,3.30
2023-02-03T10:49:06.108Z,2.90
2023-02-03T10:50:05.943Z,2.50
2023-02-03T10:51:06.042Z,2.10
2023-02-03T10:52:06.001Z,3.30
2023-02-03T10:53:05.935Z,2.10
2023-02-03T10:54:05.930Z,1.10
2023-02-03T10:55:06.073Z,7.90
2023-02-03T10:56:05.962Z,1.20
2023-02-03T10:57:05.918Z,1.30
2023-02-03T10:58:05.897Z,1.30
2023-02-03T10:59:05.883Z,1.30
2023-02-03T11:00:05.896Z,2.00
2023-02-03T11:01:06.147Z,2.00
2023-02-03T11:02:05.862Z,2.40
2023-02-03T11:03:05.936Z,1.80
2023-02-03T11:04:06.853Z,1.40
2023-02-03T11:05:05.842Z,1.60
2023-02-03T11:06:05.889Z,2.20
2023-02-03T11:07:05.897Z,2.50
2023-02-03T11:08:05.816Z,1.90
2023-02-03T11:09:05.912Z,1.30
2023-02-03T11:10:05.807Z,2.50
2023-02-03T11:11:05.808Z,1.90
2023-02-03T11:12:05.840Z,2.30
2023-02-03T11:13:05.848Z,1.70
2023-02-03T11:14:05.768Z,1.60
2023-02-03T11:15:05.758Z,1.40
2023-02-03T11:16:05.793Z,1.50
2023-02-03T11:17:05.747Z,1.20
2023-02-03T11:18:05.746Z,2.20
2023-02-03T11:19:05.807Z,1.80
2023-02-03T11:20:05.720Z,2.00
2023-02-03T11:21:05.731Z,1.50
2023-02-03T11:22:05.737Z,2.10
2023-02-03T11:23:05.722Z,2.90
2023-02-03T11:24:05.761Z,2.30
2023-02-03T11:25:05.858Z,3.10
2023-02-03T11:26:05.763Z,1.90
2023-02-03T11:27:05.693Z,1.80
2023-02-03T11:28:05.716Z,2.20
2023-02-03T11:29:05.674Z,1.90
2023-02-03T11:30:05.668Z,1.80
2023-02-03T11:31:05.800Z,1.40
2023-02-03T11:32:05.756Z,1.60
2023-02-03T11:33:05.616Z,1.40
2023-02-03T11:34:05.629Z,2.60
2023-02-03T11:35:05.637Z,1.90
2023-02-03T11:36:05.641Z,1.50
2023-02-03T11:37:05.695Z,1.70
2023-02-03T11:38:05.585Z,1.40
2023-02-03T11:39:05.585Z,2.70
2023-02-03T11:40:05.638Z,3.00
2023-02-03T11:41:05.631Z,1.20
2023-02-03T11:42:05.560Z,1.90
2023-02-03T11:43:06.001Z,1.70
2023-02-03T11:44:05.569Z,2.20
2023-02-03T11:45:05.584Z,2.40
2023-02-03T11:46:05.631Z,2.10
2023-02-03T11:47:05.529Z,3.00
2023-02-03T11:48:05.526Z,1.80
2023-02-03T11:49:05.608Z,2.80
2023-02-03T11:50:05.513Z,2.90
2023-02-03T11:51:05.555Z,1.70
2023-02-03T11:52:05.529Z,3.30
2023-02-03T11:53:05.491Z,1.70
2023-02-03T11:54:05.479Z,1.90
2023-02-03T11:55:06.678Z,2.20
2023-02-03T11:56:05.467Z,2.30
2023-02-03T11:57:05.461Z,4.40
2023-02-03T11:58:05.503Z,2.90
2023-02-03T11:59:05.414Z,2.40
2023-02-03T12:00:05.467Z,2.90
2023-02-03T12:01:05.534Z,1.80
2023-02-03T12:02:05.472Z,1.90
2023-02-03T12:03:05.489Z,3.00
2023-02-03T12:04:05.460Z,2.60
2023-02-03T12:05:05.390Z,2.60
2023-02-03T12:06:05.399Z,2.40
2023-02-03T12:07:05.453Z,2.30
2023-02-03T12:08:05.378Z,3.30
2023-02-03T12:09:05.353Z,1.70
2023-02-03T12:10:05.367Z,2.50
2023-02-03T12:11:05.360Z,2.20
2023-02-03T12:12:05.344Z,2.80
2023-02-03T12:13:05.369Z,1.70
2023-02-03T12:14:05.356Z,1.90
2023-02-03T12:15:05.311Z,1.80
2023-02-03T12:16:05.461Z,3.20
2023-02-03T12:17:05.294Z,2.90
2023-02-03T12:18:05.299Z,3.80
2023-02-03T12:19:05.429Z,1.80
2023-02-03T12:20:05.296Z,2.30
2023-02-03T12:21:05.247Z,1.60
2023-02-03T12:22:05.267Z,1.30
2023-02-03T12:23:05.261Z,1.90
2023-02-03T12:24:05.293Z,2.10
2023-02-03T12:25:05.322Z,2.10
2023-02-03T12:26:05.248Z,1.60
2023-02-03T12:27:05.245Z,2.40
2023-02-03T12:28:05.264Z,2.20
2023-02-03T12:29:05.251Z,3.40
2023-02-03T12:30:05.240Z,1.50
2023-02-03T12:31:05.347Z,2.30
2023-02-03T12:32:05.202Z,2.60
2023-02-03T12:33:05.218Z,1.60
2023-02-03T12:34:05.179Z,1.50
2023-02-03T12:35:05.224Z,1.60
2023-02-03T12:36:05.188Z,1.70
2023-02-03T12:37:05.217Z,1.50
2023-02-03T12:38:05.164Z,1.80
2023-02-03T12:39:05.172Z,1.70
2023-02-03T12:40:05.171Z,1.80
2023-02-03T12:41:05.150Z,2.40
2023-02-03T12:42:05.105Z,2.20
2023-02-03T12:43:05.171Z,2.70
2023-02-03T12:44:05.136Z,2.50
2023-02-03T12:45:05.125Z,2.10
2023-02-03T12:46:05.126Z,1.50
2023-02-03T12:47:05.098Z,1.70
2023-02-03T12:48:05.069Z,5.50
2023-02-03T12:49:05.499Z,2.10
2023-02-03T12:50:05.120Z,3.00
2023-02-03T12:51:05.063Z,2.20
2023-02-03T12:52:05.049Z,2.60
2023-02-03T12:53:05.060Z,2.00
2023-02-03T12:54:05.089Z,2.90
2023-02-03T12:55:05.094Z,2.70
2023-02-03T12:56:05.060Z,1.70
2023-02-03T12:57:05.007Z,2.20
2023-02-03T12:58:05.008Z,1.40
2023-02-03T12:59:05.017Z,2.50
2023-02-03T13:00:04.992Z,2.10
2023-02-03T13:01:05.570Z,2.40
2023-02-03T13:02:04.990Z,2.10
2023-02-03T13:03:04.962Z,3.60
2023-02-03T13:04:05.079Z,4.40
2023-02-03T13:05:04.938Z,2.60